Time;durP1;ratioP1;P1;durP2;ratioP2;P2;SDS_P1;SDS_P2;PMS_P1;PMS_P2;Temp;Humidity;BMP_temperature;BMP_pressure;BME280_temperature;BME280_humidity;BME280_pressure;Samples;Min_cycle;Max_cycle;Signal;HPM_P1;HPM_P2
2022/02/22 00:00:00;;;;;;;6.97;1.40;;;;;;;-148.22;100.00;64452.44;5099985;28;20053;-64
2022/02/22 00:02:26;;;;;;;4.57;0.98;;;;;;;-148.22;100.00;64452.44;5082929;28;20036;-65
2022/02/22 00:04:53;;;;;;;4.57;1.10;;;;;;;-148.22;100.00;64452.44;5086190;28;20044;-65
2022/02/22 00:07:19;;;;;;;6.28;1.33;;;;;;;-148.22;100.00;64452.44;5086722;28;20051;-65
2022/02/22 00:09:46;;;;;;;8.77;1.92;;;;;;;-148.22;100.00;64452.44;5086991;28;20093;-65
2022/02/22 00:12:13;;;;;;;2.78;0.73;;;;;;;-148.22;100.00;64452.44;5087396;28;20040;-65
2022/02/22 00:14:43;;;;;;;10.90;1.55;;;;;;;-148.22;100.00;64452.44;5077406;28;20040;-65
2022/02/22 00:17:09;;;;;;;8.40;1.40;;;;;;;-148.22;100.00;64452.44;5086961;28;20051;-65
2022/02/22 00:19:36;;;;;;;4.63;1.20;;;;;;;-148.22;100.00;64452.44;5067252;28;20519;-66
2022/02/22 00:22:03;;;;;;;4.97;1.27;;;;;;;-148.22;100.00;64452.44;5066117;28;20557;-65
2022/02/22 00:24:29;;;;;;;4.40;1.08;;;;;;;-148.22;100.00;64452.44;5077734;28;20036;-66
2022/02/22 00:26:56;;;;;;;6.07;1.35;;;;;;;-148.22;100.00;64452.44;5067191;28;20466;-66
2022/02/22 00:29:23;;;;;;;3.97;1.25;;;;;;;-148.22;100.00;64452.44;5083890;28;20066;-66
2022/02/22 00:31:49;;;;;;;7.38;1.55;;;;;;;-148.22;100.00;64452.44;5086689;28;20051;-65
2022/02/22 00:34:16;;;;;;;5.60;1.45;;;;;;;-148.22;100.00;64452.44;5078928;28;20582;-65
2022/02/22 00:36:44;;;;;;;5.18;1.23;;;;;;;-148.22;100.00;64452.44;5086425;28;20051;-65
2022/02/22 00:39:11;;;;;;;3.80;1.08;;;;;;;-148.22;100.00;64452.44;5094346;28;20062;-65
2022/02/22 00:41:38;;;;;;;3.38;0.90;;;;;;;-148.22;100.00;64452.44;5086045;28;20051;-65
2022/02/22 00:44:05;;;;;;;6.03;1.10;;;;;;;-148.22;100.00;64452.44;5086330;28;20055;-65
2022/02/22 00:46:32;;;;;;;6.18;1.02;;;;;;;-148.22;100.00;64452.44;5086950;28;20485;-65
2022/02/22 00:48:58;;;;;;;7.32;1.35;;;;;;;-148.22;100.00;64452.44;5086672;28;20033;-65
2022/02/22 00:51:25;;;;;;;6.43;1.40;;;;;;;-148.22;100.00;64452.44;5072722;28;20052;-65
2022/02/22 00:53:52;;;;;;;5.00;1.20;;;;;;;-148.22;100.00;64452.44;5079690;28;20123;-65
2022/02/22 00:56:18;;;;;;;4.53;1.38;;;;;;;-148.22;100.00;64452.44;5080439;28;20041;-65
2022/02/22 00:58:46;;;;;;;5.63;1.55;;;;;;;-148.22;100.00;64452.44;5090458;28;20051;-65
2022/02/22 01:01:16;;;;;;;4.72;1.30;;;;;;;-148.22;100.00;64452.44;5102430;28;20086;-66
2022/02/22 01:03:43;;;;;;;4.10;1.00;;;;;;;-148.22;100.00;64452.44;5086598;28;20786;-65
2022/02/22 01:06:10;;;;;;;8.60;1.33;;;;;;;-148.22;100.00;64452.44;5068421;28;20043;-65
2022/02/22 01:08:37;;;;;;;7.07;1.20;;;;;;;-148.22;100.00;64452.44;5066043;28;20036;-65
2022/02/22 01:11:03;;;;;;;4.85;0.90;;;;;;;-148.22;100.00;64452.44;5082474;28;20044;-65
2022/02/22 01:13:30;;;;;;;5.32;1.30;;;;;;;-148.22;100.00;64452.44;5086853;28;20036;-65
2022/02/22 01:15:58;;;;;;;10.05;1.33;;;;;;;-148.22;100.00;64452.44;5071117;28;20392;-65
2022/02/22 01:18:24;;;;;;;9.63;1.30;;;;;;;-148.22;100.00;64452.44;5080587;28;20032;-65
2022/02/22 01:20:51;;;;;;;7.63;1.83;;;;;;;-148.22;100.00;64452.44;5084762;28;20048;-65
2022/02/22 01:23:18;;;;;;;8.85;1.90;;;;;;;-148.22;100.00;64452.44;5085674;28;20043;-65
2022/02/22 01:25:45;;;;;;;8.38;2.10;;;;;;;-148.22;100.00;64452.44;5086065;28;20040;-65
2022/02/22 01:28:11;;;;;;;8.10;1.48;;;;;;;-148.22;100.00;64452.44;5085790;28;20062;-65
2022/02/22 01:30:38;;;;;;;6.20;1.25;;;;;;;-148.22;100.00;64452.44;5067362;28;20041;-65
2022/02/22 01:33:05;;;;;;;9.68;2.40;;;;;;;-148.22;100.00;64452.44;5080747;28;20101;-65
2022/02/22 01:35:36;;;;;;;4.30;1.13;;;;;;;-148.22;100.00;64452.44;5067213;28;20036;-65
2022/02/22 01:38:03;;;;;;;3.50;0.88;;;;;;;-148.22;100.00;64452.44;5070603;28;20067;-65
2022/02/22 01:40:30;;;;;;;7.45;1.52;;;;;;;-148.22;100.00;64452.44;5085271;28;20040;-65
2022/02/22 01:42:57;;;;;;;5.60;1.38;;;;;;;-148.22;100.00;64452.44;5085483;28;20702;-65
2022/02/22 01:45:24;;;;;;;4.15;1.10;;;;;;;-148.22;100.00;64452.44;5085623;28;20115;-65
2022/02/22 01:47:51;;;;;;;1.75;0.70;;;;;;;-148.22;100.00;64452.44;5085900;28;20546;-65
2022/02/22 01:50:17;;;;;;;4.63;1.42;;;;;;;-148.22;100.00;64452.44;5071357;28;20045;-66
2022/02/22 01:52:44;;;;;;;4.05;1.05;;;;;;;-148.22;100.00;64452.44;5073002;28;20044;-65
2022/02/22 01:55:11;;;;;;;5.50;1.15;;;;;;;-148.22;100.00;64452.44;5085708;28;20504;-65
2022/02/22 01:57:38;;;;;;;5.00;1.15;;;;;;;-148.22;100.00;64452.44;5084241;28;20043;-65
2022/02/22 02:00:09;;;;;;;5.72;1.20;;;;;;;-148.22;100.00;64452.44;5070035;28;20125;-65
2022/02/22 02:02:39;;;;;;;7.18;1.60;;;;;;;-148.22;100.00;64452.44;5079314;28;20048;-65
2022/02/22 02:05:07;;;;;;;6.68;1.60;;;;;;;-148.22;100.00;64452.44;5082516;28;20040;-65
2022/02/22 02:07:33;;;;;;;6.80;1.70;;;;;;;-148.22;100.00;64452.44;5071901;28;20551;-65
2022/02/22 02:10:00;;;;;;;5.28;1.30;;;;;;;-148.22;100.00;64452.44;5065744;28;20045;-66
2022/02/22 02:12:35;;;;;;;13.38;2.53;;;;;;;-148.22;100.00;64452.44;5074697;28;20036;-66
2022/02/22 02:15:02;;;;;;;8.02;1.70;;;;;;;-148.22;100.00;64452.44;5090832;28;20036;-65
2022/02/22 02:17:29;;;;;;;4.72;1.10;;;;;;;-148.22;100.00;64452.44;5083840;28;20048;-65
2022/02/22 02:19:56;;;;;;;9.48;1.52;;;;;;;-148.22;100.00;64452.44;5076217;28;20241;-65
2022/02/22 02:22:22;;;;;;;9.38;2.30;;;;;;;-148.22;100.00;64452.44;5071058;28;20046;-65
2022/02/22 02:24:49;;;;;;;3.70;1.08;;;;;;;-148.22;100.00;64452.44;5075330;28;20040;-65
2022/02/22 02:27:18;;;;;;;3.67;1.25;;;;;;;-148.22;100.00;64452.44;5080564;28;20040;-65
2022/02/22 02:29:45;;;;;;;7.78;1.35;;;;;;;-148.22;100.00;64452.44;5085651;28;20067;-65
2022/02/22 02:32:12;;;;;;;6.28;1.45;;;;;;;-148.22;100.00;64452.44;5084444;28;20753;-64
2022/02/22 02:34:38;;;;;;;9.85;2.13;;;;;;;-148.22;100.00;64452.44;5076445;28;20044;-65
2022/02/22 02:37:05;;;;;;;5.90;1.60;;;;;;;-148.22;100.00;64452.44;5070358;28;20036;-65
2022/02/22 02:39:32;;;;;;;6.05;1.33;;;;;;;-148.22;100.00;64452.44;5088404;28;20036;-65
2022/02/22 02:41:59;;;;;;;6.22;1.42;;;;;;;-148.22;100.00;64452.44;5099545;28;20032;-65
2022/02/22 02:44:25;;;;;;;4.93;1.13;;;;;;;-148.22;100.00;64452.44;5078066;28;20658;-65
2022/02/22 02:46:52;;;;;;;5.07;1.10;;;;;;;-148.22;100.00;64452.44;5072231;28;20093;-65
2022/02/22 02:49:20;;;;;;;10.45;2.13;;;;;;;-148.22;100.00;64452.44;5089268;28;20448;-65
2022/02/22 02:51:47;;;;;;;3.85;1.88;;;;;;;-148.22;100.00;64452.44;5087423;28;20509;-65
2022/02/22 02:54:14;;;;;;;6.90;1.40;;;;;;;-148.22;100.00;64452.44;5089235;28;20044;-65
2022/02/22 02:56:41;;;;;;;4.15;1.30;;;;;;;-148.22;100.00;64452.44;5086095;28;20048;-65
2022/02/22 02:59:10;;;;;;;6.20;1.52;;;;;;;-148.22;100.00;64452.44;5097056;28;20055;-65
2022/02/22 03:01:38;;;;;;;4.65;1.10;;;;;;;-148.22;100.00;64452.44;5085516;28;20048;-65
2022/02/22 03:04:05;;;;;;;5.97;1.42;;;;;;;-148.22;100.00;64452.44;5088798;28;20047;-65
2022/02/22 03:06:32;;;;;;;4.32;1.40;;;;;;;-148.22;100.00;64452.44;5085808;28;20561;-65
2022/02/22 03:08:58;;;;;;;5.82;1.42;;;;;;;-148.22;100.00;64452.44;5087552;28;20055;-65
2022/02/22 03:11:25;;;;;;;7.18;1.40;;;;;;;-148.22;100.00;64452.44;5085183;28;20032;-65
2022/02/22 03:13:52;;;;;;;7.88;1.65;;;;;;;-148.22;100.00;64452.44;5086986;28;20036;-65
2022/02/22 03:16:19;;;;;;;13.15;2.22;;;;;;;-148.22;100.00;64452.44;5087998;28;20111;-65
2022/02/22 03:18:45;;;;;;;4.93;1.30;;;;;;;-148.22;100.00;64452.44;5088552;28;20032;-65
2022/02/22 03:21:12;;;;;;;6.97;1.63;;;;;;;-148.22;100.00;64452.44;5077849;28;20052;-65
2022/02/22 03:23:39;;;;;;;7.28;1.48;;;;;;;-148.22;100.00;64452.44;5068262;28;20404;-65
2022/02/22 03:26:06;;;;;;;5.43;1.75;;;;;;;-148.22;100.00;64452.44;5075872;28;20040;-65
2022/02/22 03:28:37;;;;;;;7.05;1.90;;;;;;;-148.22;100.00;64452.44;5088042;28;20056;-65
2022/02/22 03:31:04;;;;;;;8.15;2.00;;;;;;;-148.22;100.00;64452.44;5071827;28;20040;-65
2022/02/22 03:33:32;;;;;;;3.90;1.27;;;;;;;-148.22;100.00;64452.44;5083055;28;20043;-65
2022/02/22 03:36:00;;;;;;;5.13;2.45;;;;;;;-148.22;100.00;64452.44;5088581;28;20642;-65
2022/02/22 03:38:26;;;;;;;8.55;2.10;;;;;;;-148.22;100.00;64452.44;5087380;28;20047;-65
2022/02/22 03:40:53;;;;;;;4.80;1.63;;;;;;;-148.22;100.00;64452.44;5092260;28;20040;-65
2022/02/22 03:43:19;;;;;;;8.32;2.35;;;;;;;-148.22;100.00;64452.44;5086813;28;20048;-65
2022/02/22 03:45:46;;;;;;;8.10;2.17;;;;;;;-148.22;100.00;64452.44;5086344;28;20047;-65
2022/02/22 03:48:13;;;;;;;8.80;2.58;;;;;;;-148.22;100.00;64452.44;5074044;28;20048;-65
2022/02/22 03:50:39;;;;;;;5.55;1.58;;;;;;;-148.22;100.00;64452.44;5085218;28;20047;-65
2022/02/22 03:53:06;;;;;;;6.43;1.67;;;;;;;-148.22;100.00;64452.44;5071973;28;20625;-65
2022/02/22 03:55:34;;;;;;;6.35;1.85;;;;;;;-148.22;100.00;64452.44;5083659;28;20093;-65
2022/02/22 03:58:00;;;;;;;3.03;1.23;;;;;;;-148.22;100.00;64452.44;5086072;28;20044;-65
2022/02/22 04:00:28;;;;;;;11.52;2.00;;;;;;;-148.22;100.00;64452.44;5080331;28;20062;-66
2022/02/22 04:02:54;;;;;;;3.72;1.67;;;;;;;-148.22;100.00;64452.44;5082196;28;20036;-65
2022/02/22 04:05:22;;;;;;;7.47;1.95;;;;;;;-148.22;100.00;64452.44;5087424;28;20048;-65
2022/02/22 04:07:50;;;;;;;4.40;1.98;;;;;;;-148.22;100.00;64452.44;5086479;28;20044;-65
2022/02/22 04:10:17;;;;;;;7.28;2.00;;;;;;;-148.22;100.00;64452.44;5069757;28;20048;-65
2022/02/22 04:12:45;;;;;;;7.85;1.95;;;;;;;-148.22;100.00;64452.44;5080643;28;20040;-65
2022/02/22 04:15:12;;;;;;;5.32;1.98;;;;;;;-148.22;100.00;64452.44;5067146;28;20043;-65
2022/02/22 04:17:39;;;;;;;6.22;2.20;;;;;;;-148.22;100.00;64452.44;5070207;28;20063;-65
2022/02/22 04:20:08;;;;;;;4.35;1.73;;;;;;;-148.22;100.00;64452.44;5067478;28;20049;-65
2022/02/22 04:22:35;;;;;;;6.22;1.65;;;;;;;-148.22;100.00;64452.44;5083146;28;20577;-65
2022/02/22 04:25:03;;;;;;;9.27;1.38;;;;;;;-148.22;100.00;64452.44;5086632;28;20125;-65
2022/02/22 04:27:30;;;;;;;7.28;1.80;;;;;;;-148.22;100.00;64452.44;5079711;28;20052;-65
2022/02/22 04:29:56;;;;;;;6.43;1.45;;;;;;;-148.22;100.00;64452.44;5086039;28;20063;-65
2022/02/22 04:32:23;;;;;;;8.68;2.20;;;;;;;-148.22;100.00;64452.44;5095758;28;20047;-65
2022/02/22 04:34:51;;;;;;;10.52;2.03;;;;;;;-148.22;100.00;64452.44;5102923;28;20040;-65
2022/02/22 04:37:18;;;;;;;4.68;1.92;;;;;;;-148.22;100.00;64452.44;5084884;28;20119;-65
2022/02/22 04:39:48;;;;;;;5.72;2.25;;;;;;;-148.22;100.00;64452.44;5082728;28;20064;-65
2022/02/22 04:42:14;;;;;;;6.72;1.80;;;;;;;-148.22;100.00;64452.44;5070580;28;20048;-65
2022/02/22 04:44:43;;;;;;;5.93;1.63;;;;;;;-148.22;100.00;64452.44;5081007;28;20056;-65
2022/02/22 04:47:11;;;;;;;8.45;1.73;;;;;;;-148.22;100.00;64452.44;5071543;28;20059;-65
2022/02/22 04:49:37;;;;;;;5.28;1.52;;;;;;;-148.22;100.00;64452.44;5082117;28;20042;-65
2022/02/22 04:52:05;;;;;;;8.43;2.17;;;;;;;-148.22;100.00;64452.44;5085752;28;20047;-65
2022/02/22 04:54:32;;;;;;;8.38;2.67;;;;;;;-148.22;100.00;64452.44;5086472;28;20067;-65
2022/02/22 04:56:59;;;;;;;6.18;1.70;;;;;;;-148.22;100.00;64452.44;5072478;28;20048;-65
2022/02/22 04:59:25;;;;;;;6.38;1.80;;;;;;;-148.22;100.00;64452.44;5101606;28;20031;-65
2022/02/22 05:01:52;;;;;;;6.22;1.73;;;;;;;-148.22;100.00;64452.44;5085779;28;20670;-65
2022/02/22 05:04:19;;;;;;;8.85;2.53;;;;;;;-148.22;100.00;64452.44;5085325;28;20553;-65
2022/02/22 05:06:45;;;;;;;11.13;2.40;;;;;;;-148.22;100.00;64452.44;5074354;28;20123;-65
2022/02/22 05:09:12;;;;;;;7.57;1.73;;;;;;;-148.22;100.00;64452.44;5065790;28;20458;-65
2022/02/22 05:11:39;;;;;;;7.70;1.52;;;;;;;-148.22;100.00;64452.44;5072823;28;20056;-65
2022/02/22 05:14:06;;;;;;;9.82;2.67;;;;;;;-148.22;100.00;64452.44;5082905;28;20044;-65
2022/02/22 05:16:39;;;;;;;3.67;1.42;;;;;;;-148.22;100.00;64452.44;5085168;28;20176;-65
2022/02/22 05:19:07;;;;;;;7.68;1.92;;;;;;;-148.22;100.00;64452.44;5085090;28;20050;-66
2022/02/22 05:21:34;;;;;;;7.20;2.45;;;;;;;-148.22;100.00;64452.44;5085633;28;20087;-65
2022/02/22 05:24:02;;;;;;;4.05;1.23;;;;;;;-148.22;100.00;64452.44;5086683;28;20048;-65
2022/02/22 05:26:29;;;;;;;6.13;2.08;;;;;;;-148.22;100.00;64452.44;5085082;28;20042;-65
2022/02/22 05:28:56;;;;;;;5.70;1.92;;;;;;;-148.22;100.00;64452.44;5085906;28;20122;-65
2022/02/22 05:31:23;;;;;;;9.25;2.40;;;;;;;-148.22;100.00;64452.44;5091779;28;20040;-65
2022/02/22 05:33:50;;;;;;;5.93;1.13;;;;;;;-148.22;100.00;64452.44;5076160;28;20051;-65
2022/02/22 05:36:20;;;;;;;6.85;1.67;;;;;;;-148.22;100.00;64452.44;5090113;28;20036;-65
2022/02/22 05:38:48;;;;;;;10.45;2.20;;;;;;;-148.22;100.00;64452.44;5080245;28;20114;-65
2022/02/22 05:41:17;;;;;;;4.28;1.88;;;;;;;-148.22;100.00;64452.44;5065888;28;20063;-65
2022/02/22 05:43:45;;;;;;;6.15;1.63;;;;;;;-148.22;100.00;64452.44;5074304;28;20064;-65
2022/02/22 05:46:12;;;;;;;11.25;2.35;;;;;;;-148.22;100.00;64452.44;5081398;28;20115;-65
2022/02/22 05:48:40;;;;;;;7.97;3.13;;;;;;;-148.22;100.00;64452.44;5085032;28;20633;-65
2022/02/22 05:51:06;;;;;;;7.72;1.83;;;;;;;-148.22;100.00;64452.44;5080723;28;20048;-65
2022/02/22 05:53:33;;;;;;;4.18;1.55;;;;;;;-148.22;100.00;64452.44;5077280;28;20043;-65
2022/02/22 05:56:00;;;;;;;5.43;2.13;;;;;;;-148.22;100.00;64452.44;5081701;28;20039;-65
2022/02/22 05:58:27;;;;;;;7.22;2.42;;;;;;;-148.22;100.00;64452.44;5085852;28;20076;-65
2022/02/22 06:00:54;;;;;;;10.55;2.58;;;;;;;-148.22;100.00;64452.44;5079919;28;20048;-65
2022/02/22 06:03:20;;;;;;;3.92;1.50;;;;;;;-148.22;100.00;64452.44;5075970;28;20119;-65
2022/02/22 06:05:47;;;;;;;6.75;1.75;;;;;;;-148.22;100.00;64452.44;5079323;28;20118;-65
2022/02/22 06:08:16;;;;;;;9.57;2.70;;;;;;;-148.22;100.00;64452.44;5074760;28;20051;-65
2022/02/22 06:10:42;;;;;;;8.90;2.22;;;;;;;-148.22;100.00;64452.44;5077997;28;20048;-65
2022/02/22 06:13:09;;;;;;;6.75;2.33;;;;;;;-148.22;100.00;64452.44;5069225;28;20044;-65
2022/02/22 06:15:36;;;;;;;8.50;2.35;;;;;;;-148.22;100.00;64452.44;5080690;28;20043;-65
2022/02/22 06:18:03;;;;;;;8.48;2.05;;;;;;;-148.22;100.00;64452.44;5080058;28;20043;-65
2022/02/22 06:20:32;;;;;;;6.07;1.77;;;;;;;-148.22;100.00;64452.44;5075408;28;20392;-65
2022/02/22 06:22:59;;;;;;;14.98;5.32;;;;;;;-148.22;100.00;64452.44;5088303;28;20043;-65
2022/02/22 06:25:26;;;;;;;9.23;2.55;;;;;;;-148.22;100.00;64452.44;5081253;28;20040;-65
2022/02/22 06:27:54;;;;;;;7.70;2.03;;;;;;;-148.22;100.00;64452.44;5084330;28;20128;-65
2022/02/22 06:30:24;;;;;;;9.23;2.33;;;;;;;-148.22;100.00;64452.44;5094344;28;21175;-65
2022/02/22 06:32:51;;;;;;;7.20;1.67;;;;;;;-148.22;100.00;64452.44;5093198;28;20040;-65
2022/02/22 06:35:19;;;;;;;9.32;2.95;;;;;;;-148.22;100.00;64452.44;5086747;28;20089;-65
2022/02/22 06:37:46;;;;;;;11.52;3.35;;;;;;;-148.22;100.00;64452.44;5077185;28;20039;-65
2022/02/22 06:40:14;;;;;;;16.30;4.85;;;;;;;-148.22;100.00;64452.44;5080159;28;20047;-65
2022/02/22 06:42:40;;;;;;;6.35;2.20;;;;;;;-148.22;100.00;64452.44;5076830;28;20498;-65
2022/02/22 06:45:08;;;;;;;9.77;2.80;;;;;;;-148.22;100.00;64452.44;5083073;28;20044;-65
2022/02/22 06:47:41;;;;;;;10.73;4.65;;;;;;;-148.22;100.00;64452.44;5089001;28;20715;-65
2022/02/22 06:50:11;;;;;;;14.27;2.85;;;;;;;-148.22;100.00;64452.44;5097007;28;20043;-65
2022/02/22 06:52:39;;;;;;;13.40;2.45;;;;;;;-148.22;100.00;64452.44;5090665;28;20054;-64
2022/02/22 06:55:10;;;;;;;33.92;14.02;;;;;;;-148.22;100.00;64452.44;5085944;28;20044;-64
2022/02/22 06:57:38;;;;;;;10.00;4.80;;;;;;;-148.22;100.00;64452.44;5087797;28;20044;-64
2022/02/22 07:00:09;;;;;;;4.65;2.33;;;;;;;-148.22;100.00;64452.44;5109153;28;20113;-64
2022/02/22 07:02:40;;;;;;;18.77;6.60;;;;;;;-148.22;100.00;64452.44;5096923;28;20055;-64
2022/02/22 07:05:08;;;;;;;11.18;6.20;;;;;;;-148.22;100.00;64452.44;5087552;28;20040;-64
2022/02/22 07:07:35;;;;;;;11.80;5.30;;;;;;;-148.22;100.00;64452.44;5085647;28;20425;-65
2022/02/22 07:10:03;;;;;;;13.20;4.10;;;;;;;-148.22;100.00;64452.44;5084474;28;20052;-64
2022/02/22 07:12:33;;;;;;;11.43;2.95;;;;;;;-148.22;100.00;64452.44;5082259;28;20044;-65
2022/02/22 07:15:00;;;;;;;6.80;2.17;;;;;;;-148.22;100.00;64452.44;5085987;28;20133;-64
2022/02/22 07:17:27;;;;;;;12.65;4.68;;;;;;;-148.22;100.00;64452.44;5081471;28;20076;-65
2022/02/22 07:19:55;;;;;;;10.85;2.65;;;;;;;-148.22;100.00;64452.44;5072918;28;20048;-64
2022/02/22 07:22:22;;;;;;;15.77;5.20;;;;;;;-148.22;100.00;64452.44;5074598;28;20077;-64
2022/02/22 07:24:48;;;;;;;7.97;2.85;;;;;;;-148.22;100.00;64452.44;5080402;28;20040;-64
2022/02/22 07:27:15;;;;;;;14.55;2.97;;;;;;;-148.22;100.00;64452.44;5076859;28;20051;-63
2022/02/22 07:29:42;;;;;;;6.30;2.33;;;;;;;-148.22;100.00;64452.44;5078691;28;20055;-63
2022/02/22 07:32:09;;;;;;;7.57;1.90;;;;;;;-148.22;100.00;64452.44;5074138;28;20033;-62
2022/02/22 07:34:36;;;;;;;4.18;1.77;;;;;;;-148.22;100.00;64452.44;5077548;28;20047;-65
2022/02/22 07:37:03;;;;;;;9.30;3.20;;;;;;;-148.22;100.00;64452.44;5081871;28;20249;-63
2022/02/22 07:39:30;;;;;;;9.70;1.65;;;;;;;-148.22;100.00;64452.44;5085579;28;20108;-63
2022/02/22 07:41:56;;;;;;;6.88;1.92;;;;;;;-148.22;100.00;64452.44;5083261;28;20093;-62
2022/02/22 07:44:24;;;;;;;10.02;2.50;;;;;;;-148.22;100.00;64452.44;5080948;28;20039;-64
2022/02/22 07:46:50;;;;;;;9.85;1.60;;;;;;;-148.22;100.00;64452.44;5084657;28;20040;-64
2022/02/22 07:49:17;;;;;;;8.98;2.30;;;;;;;-148.22;100.00;64452.44;5088608;28;20044;-63
2022/02/22 07:51:44;;;;;;;10.55;2.67;;;;;;;-148.22;100.00;64452.44;5088709;28;20047;-64
2022/02/22 07:54:10;;;;;;;11.73;3.08;;;;;;;-148.22;100.00;64452.44;5082343;28;20097;-64
2022/02/22 07:56:38;;;;;;;8.85;2.05;;;;;;;-148.22;100.00;64452.44;5066627;28;20049;-64
2022/02/22 07:59:04;;;;;;;10.93;2.10;;;;;;;-148.22;100.00;64452.44;5081166;28;20538;-64
2022/02/22 08:01:31;;;;;;;10.00;2.67;;;;;;;-148.22;100.00;64452.44;5084292;28;20047;-64
2022/02/22 08:03:58;;;;;;;7.43;1.88;;;;;;;-148.22;100.00;64452.44;5079701;28;20048;-65
2022/02/22 08:06:25;;;;;;;7.72;1.85;;;;;;;-148.22;100.00;64452.44;5085595;28;20040;-64
2022/02/22 08:08:52;;;;;;;10.55;2.25;;;;;;;-148.22;100.00;64452.44;5085888;28;20044;-64
2022/02/22 08:11:20;;;;;;;9.13;2.53;;;;;;;-148.22;100.00;64452.44;5084649;28;20051;-65
2022/02/22 08:13:49;;;;;;;9.10;1.90;;;;;;;-148.22;100.00;64452.44;5075685;28;20098;-64
2022/02/22 08:16:16;;;;;;;4.25;1.50;;;;;;;-148.22;100.00;64452.44;5075879;28;20044;-62
2022/02/22 08:18:43;;;;;;;7.13;2.15;;;;;;;-148.22;100.00;64452.44;5081950;28;20048;-64
2022/02/22 08:21:09;;;;;;;4.03;2.10;;;;;;;-148.22;100.00;64452.44;5084955;28;20411;-64
2022/02/22 08:23:36;;;;;;;9.00;2.60;;;;;;;-148.22;100.00;64452.44;5090836;28;21073;-63
2022/02/22 08:26:04;;;;;;;12.05;2.75;;;;;;;-148.22;100.00;64452.44;5077008;28;20048;-63
2022/02/22 08:28:31;;;;;;;7.10;1.73;;;;;;;-148.22;100.00;64452.44;5084229;28;20063;-64
2022/02/22 08:30:58;;;;;;;10.88;2.38;;;;;;;-148.22;100.00;64452.44;5077356;28;20049;-64
2022/02/22 08:33:25;;;;;;;9.75;1.90;;;;;;;-148.22;100.00;64452.44;5084023;28;20064;-63
2022/02/22 08:35:51;;;;;;;4.45;1.88;;;;;;;-148.22;100.00;64452.44;5086752;28;20134;-65
2022/02/22 08:38:18;;;;;;;7.20;2.45;;;;;;;-148.22;100.00;64452.44;5078645;28;20488;-62
2022/02/22 08:40:46;;;;;;;8.02;2.00;;;;;;;-148.22;100.00;64452.44;5086526;28;20040;-64
2022/02/22 08:43:15;;;;;;;11.05;2.65;;;;;;;-148.22;100.00;64452.44;5077594;28;20067;-64
2022/02/22 08:45:44;;;;;;;9.38;2.03;;;;;;;-148.22;100.00;64452.44;5076004;28;20112;-63
2022/02/22 08:48:12;;;;;;;7.05;2.35;;;;;;;-148.22;100.00;64452.44;5092425;28;20522;-63
2022/02/22 08:50:40;;;;;;;4.68;1.73;;;;;;;-148.22;100.00;64452.44;5085915;28;20055;-64
2022/02/22 08:53:07;;;;;;;9.65;1.52;;;;;;;-148.22;100.00;64452.44;5084250;28;20071;-65
2022/02/22 08:55:35;;;;;;;7.22;1.20;;;;;;;-148.22;100.00;64452.44;5079441;28;20052;-65
2022/02/22 08:58:02;;;;;;;3.33;1.10;;;;;;;-148.22;100.00;64452.44;5072857;28;20406;-63
2022/02/22 09:00:28;;;;;;;8.05;2.03;;;;;;;-148.22;100.00;64452.44;5075373;28;20044;-64
2022/02/22 09:03:03;;;;;;;15.27;2.90;;;;;;;;;;5103281;27;21783;-63
2022/02/22 09:05:30;;;;;;;9.85;2.47;;;;;;;;;;5078068;28;20069;-63
2022/02/22 09:07:57;;;;;;;6.35;1.58;;;;;;;;;;5081784;28;20752;-63
2022/02/22 09:10:24;;;;;;;6.53;1.70;;;;;;;;;;5059638;28;20033;-64
2022/02/22 09:12:51;;;;;;;4.90;1.65;;;;;;;;;;5060566;28;20138;-63
2022/02/22 09:15:19;;;;;;;7.82;1.63;;;;;;;;;;5060726;28;20037;-63
2022/02/22 09:17:46;;;;;;;6.88;1.85;;;;;;;;;;5059335;28;20045;-63
2022/02/22 09:22:36;;;;;;;7.75;2.03;;;;;;;4.37;76.17;97976.19;5060892;28;20506;-63
2022/02/22 09:25:04;;;;;;;6.75;1.50;;;;;;;4.60;75.51;97975.09;5063243;28;20037;-65
2022/02/22 09:27:30;;;;;;;4.90;0.95;;;;;;;4.53;74.69;97986.59;5058927;28;20048;-64
2022/02/22 09:29:57;;;;;;;5.95;1.70;;;;;;;4.51;74.49;97969.88;5058240;28;20128;-63
2022/02/22 09:32:25;;;;;;;8.25;1.95;;;;;;;4.77;74.30;97973.72;5045381;28;20040;-62
2022/02/22 09:34:52;;;;;;;8.23;1.20;;;;;;;4.78;73.64;97982.59;5054789;28;20053;-65
2022/02/22 09:37:19;;;;;;;9.30;2.20;;;;;;;4.79;74.50;97989.63;5058087;28;20508;-64
2022/02/22 09:39:46;;;;;;;7.43;1.70;;;;;;;4.69;73.43;97973.91;5055706;28;20441;-65
2022/02/22 09:42:12;;;;;;;11.07;2.45;;;;;;;4.85;73.09;97978.09;5058298;28;20634;-65
2022/02/22 09:44:40;;;;;;;9.63;2.63;;;;;;;4.89;73.83;97983.88;5062928;28;20052;-65
2022/02/22 09:47:08;;;;;;;12.20;1.92;;;;;;;4.92;73.17;97978.09;5051709;28;20116;-64
2022/02/22 09:49:36;;;;;;;9.82;2.35;;;;;;;5.05;73.55;97988.09;5059482;28;20190;-63
2022/02/22 09:52:03;;;;;;;8.63;1.95;;;;;;;5.08;73.41;97980.44;5045382;28;20048;-63
2022/02/22 09:54:30;;;;;;;7.25;1.90;;;;;;;5.23;72.97;97984.81;5042280;28;20049;-64
2022/02/22 09:56:57;;;;;;;4.32;1.65;;;;;;;5.29;71.78;97986.72;5050601;28;20056;-64
2022/02/22 09:59:24;;;;;;;10.75;2.08;;;;;;;5.60;71.17;97981.78;5055468;28;20527;-64
2022/02/22 10:01:53;;;;;;;7.38;1.95;;;;;;;5.76;70.86;97975.22;5058743;28;20045;-63
2022/02/22 10:04:21;;;;;;;10.40;2.70;;;;;;;5.58;71.71;97976.66;5061704;28;20045;-63
2022/02/22 10:06:50;;;;;;;10.52;2.22;;;;;;;5.59;70.79;97983.66;5058807;28;20079;-64
2022/02/22 10:09:17;;;;;;;5.78;2.03;;;;;;;5.51;70.76;97969.59;5056841;28;20049;-64
2022/02/22 10:11:50;;;;;;;9.90;2.00;;;;;;;5.53;71.80;97971.03;5049484;28;20060;-64
2022/02/22 10:14:28;;;;;;;6.10;2.13;;;;;;;5.40;71.82;97977.22;5046542;28;20037;-64
2022/02/22 10:16:57;;;;;;;5.45;2.15;;;;;;;5.40;71.22;97977.22;5054080;28;20106;-64
2022/02/22 10:19:26;;;;;;;8.52;2.50;;;;;;;5.50;71.66;97973.31;5050570;28;20128;-63
2022/02/22 10:21:57;;;;;;;13.13;3.35;;;;;;;5.60;71.53;97973.72;5046223;28;20124;-64
2022/02/22 10:24:29;;;;;;;9.93;2.90;;;;;;;5.63;70.84;97973.34;5061414;28;20044;-64
2022/02/22 10:27:05;;;;;;;7.63;1.50;;;;;;;5.68;70.80;97973.53;5046057;28;20049;-63
2022/02/22 10:29:34;;;;;;;6.93;2.35;;;;;;;5.69;71.29;97982.44;5055714;28;20041;-64
2022/02/22 10:32:13;;;;;;;13.38;3.03;;;;;;;5.81;70.40;97963.84;5053203;28;20111;-64
2022/02/22 10:34:40;;;;;;;12.52;2.08;;;;;;;6.03;70.77;97963.63;5048137;28;20040;-64
2022/02/22 10:37:07;;;;;;;7.95;2.20;;;;;;;6.15;69.81;97971.94;5044051;28;20416;-64
2022/02/22 10:39:34;;;;;;;8.52;2.20;;;;;;;6.08;70.62;97967.38;5045433;28;20116;-65
2022/02/22 10:42:01;;;;;;;15.45;2.78;;;;;;;5.80;70.06;97962.19;5036303;28;20045;-64
2022/02/22 10:44:33;;;;;;;9.93;2.10;;;;;;;5.68;70.26;97978.09;5033032;28;20056;-63
2022/02/22 10:47:02;;;;;;;11.73;2.40;;;;;;;5.69;70.94;97979.75;5044756;28;20048;-63
2022/02/22 10:49:32;;;;;;;12.20;2.20;;;;;;;5.69;71.56;97977.91;5036238;28;20037;-64
2022/02/22 10:52:07;;;;;;;10.77;2.30;;;;;;;5.66;71.45;97972.09;5056006;28;20044;-63
2022/02/22 10:54:35;;;;;;;10.43;2.35;;;;;;;5.68;71.23;97972.72;5054979;28;20515;-64
2022/02/22 10:57:02;;;;;;;12.70;2.75;;;;;;;5.52;71.60;97987.34;5040403;28;20743;-64
2022/02/22 10:59:31;;;;;;;9.63;1.90;;;;;;;5.59;70.84;97983.66;5044336;28;20045;-64
2022/02/22 11:01:59;;;;;;;10.88;2.30;;;;;;;5.71;72.10;97983.03;5054001;28;20041;-64
2022/02/22 11:04:28;;;;;;;6.45;2.17;;;;;;;5.80;70.71;97986.38;5045628;28;20099;-63
2022/02/22 11:06:55;;;;;;;7.97;2.20;;;;;;;5.89;70.21;97982.44;5047018;28;20830;-63
2022/02/22 11:09:23;;;;;;;9.55;2.65;;;;;;;5.78;70.31;97991.94;5040220;28;20041;-63
2022/02/22 11:12:00;;;;;;;8.55;2.63;;;;;;;5.68;71.75;97983.47;5047531;28;20037;-63
2022/02/22 11:14:32;;;;;;;12.65;2.92;;;;;;;5.91;71.01;97985.75;5049209;28;20041;-63
2022/02/22 11:17:03;;;;;;;;;;;;;;;5.77;71.46;97976.03;5043665;28;20114;-63
2022/02/22 11:19:38;;;;;;;13.38;3.22;;;;;;;5.76;71.39;97977.91;5050767;28;19967;-63